createdAt,value
2017-05-03T00:02:19.302Z,11.18
2017-05-03T00:05:13.558Z,11.19
2017-05-03T00:08:07.902Z,11.18
2017-05-03T00:11:02.143Z,11.16
2017-05-03T00:16:50.730Z,11.12
2017-05-03T00:19:44.879Z,11.11
2017-05-03T00:22:39.134Z,11.12
2017-05-03T00:25:33.533Z,11.11
2017-05-03T00:28:27.865Z,11.12
2017-05-03T00:31:22.118Z,11.09
2017-05-03T00:34:16.483Z,11.07
2017-05-03T00:37:10.792Z,11.06
2017-05-03T00:40:05.170Z,11.04
2017-05-03T00:42:59.577Z,11.06
2017-05-03T00:45:53.812Z,11.06
2017-05-03T00:48:48.152Z,11.07
2017-05-03T00:54:36.717Z,11.07
2017-05-03T00:57:31.103Z,11.06
2017-05-03T01:00:25.300Z,11.04
2017-05-03T01:03:19.600Z,11.04
2017-05-03T01:06:13.914Z,11.05
2017-05-03T01:09:08.252Z,11.03
2017-05-03T01:12:02.467Z,11.01
2017-05-03T01:14:56.830Z,11.00
2017-05-03T01:17:51.071Z,10.96
2017-05-03T01:20:45.393Z,10.97
2017-05-03T01:23:39.618Z,10.97
2017-05-03T01:26:33.901Z,11.00
2017-05-03T01:29:28.173Z,11.01
2017-05-03T01:32:22.433Z,11.03
2017-05-03T01:38:11.086Z,11.05
2017-05-03T01:41:05.365Z,11.05
2017-05-03T01:43:59.788Z,11.05
2017-05-03T01:46:54.009Z,11.02
2017-05-03T01:49:48.339Z,11.02
2017-05-03T01:52:42.752Z,11.01
2017-05-03T01:58:31.477Z,10.92
2017-05-03T02:01:25.900Z,10.89
2017-05-03T02:04:20.215Z,10.88
2017-05-03T02:07:14.467Z,10.83
2017-05-03T02:10:08.789Z,10.84
2017-05-03T02:13:02.974Z,10.82
2017-05-03T02:15:57.286Z,10.80
2017-05-03T02:18:51.611Z,10.81
2017-05-03T02:21:45.995Z,10.82
2017-05-03T02:27:35.183Z,10.87
2017-05-03T02:30:29.730Z,10.90
2017-05-03T02:33:24.047Z,10.89
2017-05-03T02:39:12.795Z,10.87
2017-05-03T02:42:07.008Z,10.89
2017-05-03T02:45:01.614Z,10.92
2017-05-03T02:47:55.902Z,10.94
2017-05-03T02:50:50.211Z,10.96
2017-05-03T02:53:44.516Z,10.96
2017-05-03T02:56:38.866Z,10.96
2017-05-03T02:59:33.153Z,10.98
2017-05-03T03:02:27.936Z,10.99
2017-05-03T03:11:11.000Z,10.96
2017-05-03T03:14:05.817Z,10.93
2017-05-03T03:17:00.080Z,10.89
2017-05-03T03:19:54.362Z,10.88
2017-05-03T03:22:48.672Z,10.85
2017-05-03T03:25:43.056Z,10.80
2017-05-03T03:28:37.368Z,10.80
2017-05-03T03:34:25.950Z,10.75
2017-05-03T03:37:20.334Z,10.76
2017-05-03T03:40:14.573Z,10.77
2017-05-03T03:46:03.190Z,10.77
2017-05-03T03:48:57.454Z,10.78
2017-05-03T03:51:51.861Z,10.79
2017-05-03T03:54:46.147Z,10.76
2017-05-03T03:57:40.393Z,10.70
2017-05-03T04:00:34.615Z,10.68
2017-05-03T04:03:28.911Z,10.64
2017-05-03T04:06:23.236Z,10.60
2017-05-03T04:09:17.545Z,10.61
2017-05-03T04:12:11.725Z,10.60
2017-05-03T04:15:05.946Z,10.62
2017-05-03T04:18:00.256Z,10.57
2017-05-03T04:20:54.473Z,10.55
2017-05-03T04:23:48.802Z,10.48
2017-05-03T04:26:43.069Z,10.40
2017-05-03T04:29:37.292Z,10.36
2017-05-03T04:32:31.521Z,10.34
2017-05-03T04:35:25.946Z,10.37
2017-05-03T04:38:20.199Z,10.39
2017-05-03T04:41:14.441Z,10.39
2017-05-03T04:44:08.745Z,10.36
2017-05-03T04:47:03.098Z,10.34
2017-05-03T04:49:57.382Z,10.36
2017-05-03T04:52:51.527Z,10.37
2017-05-03T04:58:40.119Z,10.37
2017-05-03T05:01:34.460Z,10.39
2017-05-03T05:04:28.662Z,10.41
2017-05-03T05:07:22.974Z,10.42
2017-05-03T05:10:17.320Z,10.43
2017-05-03T05:13:11.593Z,10.43
2017-05-03T05:16:05.865Z,10.41
2017-05-03T05:19:00.145Z,10.41
2017-05-03T05:21:54.470Z,10.41
2017-05-03T05:24:48.732Z,10.46
2017-05-03T05:27:43.040Z,10.47
2017-05-03T05:30:37.254Z,10.50
2017-05-03T05:33:31.581Z,10.52
2017-05-03T05:36:25.761Z,10.50
2017-05-03T05:39:19.948Z,10.53
2017-05-03T05:42:14.251Z,10.58
2017-05-03T05:45:08.544Z,10.58
2017-05-03T05:48:02.879Z,10.56
2017-05-03T05:50:57.308Z,10.51
2017-05-03T05:53:51.545Z,10.52
2017-05-03T05:56:45.827Z,10.47
2017-05-03T05:59:40.110Z,10.49
2017-05-03T06:02:34.427Z,10.53
2017-05-03T06:05:28.726Z,10.52
2017-05-03T06:08:22.996Z,10.49
2017-05-03T06:11:17.458Z,10.49
2017-05-03T06:14:11.811Z,10.54
2017-05-03T06:17:06.048Z,10.55
2017-05-03T06:20:00.344Z,10.60
2017-05-03T06:22:54.690Z,10.58
2017-05-03T06:25:48.960Z,10.62
2017-05-03T06:28:43.217Z,10.66
2017-05-03T06:31:37.511Z,10.74
2017-05-03T06:34:31.972Z,10.80
2017-05-03T06:37:26.214Z,10.84
2017-05-03T06:40:20.730Z,10.87
2017-05-03T06:43:14.959Z,10.94
2017-05-03T06:46:09.687Z,10.96
2017-05-03T06:49:03.936Z,11.04
2017-05-03T06:51:58.290Z,11.11
2017-05-03T06:57:46.908Z,11.31
2017-05-03T07:00:41.183Z,11.37
2017-05-03T07:03:35.569Z,11.42
2017-05-03T07:06:29.839Z,11.55
2017-05-03T07:09:24.210Z,11.71
2017-05-03T07:12:18.606Z,11.75
2017-05-03T07:15:12.814Z,11.77
2017-05-03T07:18:07.090Z,11.83
2017-05-03T07:21:01.464Z,11.87
2017-05-03T07:23:55.862Z,11.90
2017-05-03T07:26:50.186Z,12.03
2017-05-03T07:29:44.619Z,12.26
2017-05-03T07:32:39.110Z,12.36
2017-05-03T07:35:33.438Z,12.39
2017-05-03T07:38:27.929Z,12.38
2017-05-03T07:41:22.347Z,12.35
2017-05-03T07:44:16.740Z,12.36
2017-05-03T07:47:11.144Z,12.37
2017-05-03T07:50:05.527Z,12.42
2017-05-03T07:52:59.881Z,12.54
2017-05-03T07:55:54.335Z,12.67
2017-05-03T07:58:48.788Z,12.85
2017-05-03T08:01:43.318Z,13.01
2017-05-03T08:04:37.675Z,13.00
2017-05-03T08:07:32.609Z,13.02
2017-05-03T08:10:27.043Z,13.05
2017-05-03T08:13:21.447Z,13.07
2017-05-03T08:16:15.844Z,13.14
2017-05-03T08:19:10.212Z,13.19
2017-05-03T08:22:04.631Z,13.21
2017-05-03T08:24:59.129Z,13.30
2017-05-03T08:27:53.653Z,13.46
2017-05-03T08:30:48.153Z,13.56
2017-05-03T08:33:42.634Z,13.69
2017-05-03T08:36:37.110Z,13.76
2017-05-03T08:39:32.143Z,13.85
2017-05-03T08:42:26.534Z,14.12
2017-05-03T08:45:21.066Z,14.20
2017-05-03T08:48:15.647Z,14.15
2017-05-03T08:51:10.097Z,14.23
2017-05-03T08:54:04.656Z,14.58
2017-05-03T08:56:59.223Z,14.74
2017-05-03T08:59:53.753Z,15.00
2017-05-03T09:02:48.303Z,15.18
2017-05-03T09:05:42.999Z,15.31
2017-05-03T09:08:37.665Z,15.40
2017-05-03T09:11:32.313Z,15.46
2017-05-03T09:14:26.823Z,15.41
2017-05-03T09:17:21.425Z,15.49
2017-05-03T09:20:16.068Z,15.65
2017-05-03T09:23:10.768Z,15.98
2017-05-03T09:26:05.394Z,16.46
2017-05-03T09:29:00.089Z,17.22
2017-05-03T09:31:54.892Z,17.67
2017-05-03T09:34:49.813Z,18.28
2017-05-03T09:37:44.723Z,19.27
2017-05-03T09:40:39.650Z,19.81
2017-05-03T09:43:34.676Z,20.41
2017-05-03T09:46:29.579Z,20.31
2017-05-03T09:49:24.392Z,19.98
2017-05-03T09:52:19.618Z,20.44
2017-05-03T09:55:14.513Z,21.05
2017-05-03T09:58:09.376Z,20.99
2017-05-03T10:01:04.267Z,20.63
2017-05-03T10:03:59.069Z,20.40
2017-05-03T10:06:53.736Z,19.94
2017-05-03T10:09:48.433Z,19.59
2017-05-03T10:12:43.134Z,19.54
2017-05-03T10:15:37.888Z,19.60
2017-05-03T10:18:32.670Z,19.43
2017-05-03T10:21:27.472Z,19.15
2017-05-03T10:24:22.048Z,18.92
2017-05-03T10:27:16.559Z,18.74
2017-05-03T10:30:11.250Z,18.63
2017-05-03T10:33:05.981Z,18.62
2017-05-03T10:36:00.620Z,18.75
2017-05-03T10:38:55.476Z,18.70
2017-05-03T10:41:50.080Z,18.31
2017-05-03T10:44:44.666Z,18.33
2017-05-03T10:47:39.319Z,18.59
2017-05-03T10:50:34.096Z,18.78
2017-05-03T10:53:28.831Z,18.82
2017-05-03T10:56:24.069Z,18.99
2017-05-03T10:59:18.801Z,19.09
2017-05-03T11:02:13.539Z,19.10
2017-05-03T11:05:08.338Z,19.06
2017-05-03T11:08:03.071Z,18.91
2017-05-03T11:10:57.798Z,18.89
2017-05-03T11:13:52.685Z,18.92
2017-05-03T11:16:47.409Z,19.08
2017-05-03T11:19:42.080Z,19.20
2017-05-03T11:22:36.801Z,19.22
2017-05-03T11:25:31.395Z,19.13
2017-05-03T11:28:25.971Z,18.93
2017-05-03T11:31:20.655Z,18.86
2017-05-03T11:34:15.394Z,18.85
2017-05-03T11:37:10.108Z,18.89
2017-05-03T11:40:04.766Z,18.84
2017-05-03T11:45:54.263Z,18.91
2017-05-03T11:48:48.950Z,18.95
2017-05-03T11:51:43.664Z,19.04
2017-05-03T11:54:38.416Z,19.04
2017-05-03T11:57:33.168Z,18.87
2017-05-03T12:00:27.937Z,18.78
2017-05-03T12:06:17.450Z,18.76
2017-05-03T12:09:12.228Z,18.75
2017-05-03T12:12:07.187Z,18.80
2017-05-03T12:15:01.854Z,18.70
2017-05-03T12:17:56.643Z,18.56
2017-05-03T12:23:46.077Z,18.55
2017-05-03T12:26:40.805Z,18.60
2017-05-03T12:29:35.472Z,18.62
2017-05-03T12:32:30.261Z,18.54
2017-05-03T12:38:20.027Z,18.44
2017-05-03T12:41:14.727Z,18.29
2017-05-03T12:44:09.533Z,18.22
2017-05-03T12:47:04.220Z,18.28
2017-05-03T12:49:58.918Z,18.25
2017-05-03T12:52:53.585Z,18.25
2017-05-03T12:55:48.315Z,18.23
2017-05-03T12:58:43.128Z,18.15
2017-05-03T13:01:37.810Z,18.17
2017-05-03T13:04:32.540Z,18.17
2017-05-03T13:07:27.228Z,18.14
2017-05-03T13:10:21.899Z,18.21
2017-05-03T13:13:16.704Z,18.27
2017-05-03T13:16:11.479Z,18.26
2017-05-03T13:19:06.401Z,18.23
2017-05-03T13:22:01.211Z,18.20
2017-05-03T13:24:55.762Z,18.23
2017-05-03T13:27:50.561Z,18.13
2017-05-03T13:30:45.238Z,18.04
2017-05-03T13:33:39.948Z,17.94
2017-05-03T13:36:34.630Z,17.87
2017-05-03T13:39:29.371Z,17.84
2017-05-03T13:42:23.967Z,17.88
2017-05-03T13:45:18.680Z,17.90
2017-05-03T13:48:13.345Z,17.90
2017-05-03T13:51:08.071Z,17.80
2017-05-03T13:54:02.723Z,17.71
2017-05-03T13:56:57.386Z,17.52
2017-05-03T13:59:52.229Z,17.32
2017-05-03T14:02:47.025Z,17.14
2017-05-03T14:05:41.615Z,17.12
2017-05-03T14:08:36.212Z,17.13
2017-05-03T14:11:30.878Z,17.11
2017-05-03T14:14:25.510Z,17.10
2017-05-03T14:17:20.137Z,17.12
2017-05-03T14:20:14.768Z,17.10
2017-05-03T14:23:09.486Z,17.13
2017-05-03T14:26:04.272Z,17.16
2017-05-03T14:31:53.657Z,17.17
2017-05-03T14:34:48.323Z,17.15
2017-05-03T14:37:42.947Z,17.15
2017-05-03T14:40:37.600Z,17.19
2017-05-03T14:43:32.214Z,17.19
2017-05-03T14:46:26.907Z,17.15
2017-05-03T14:49:21.500Z,17.10
2017-05-03T14:52:16.007Z,17.02
2017-05-03T14:55:10.573Z,16.95
2017-05-03T14:58:05.182Z,16.91
2017-05-03T15:00:59.917Z,16.86
2017-05-03T15:03:54.572Z,16.86
2017-05-03T15:06:49.269Z,16.89
2017-05-03T15:09:43.868Z,16.91
2017-05-03T15:12:38.435Z,16.88
2017-05-03T15:15:32.968Z,16.83
2017-05-03T15:18:27.766Z,16.77
2017-05-03T15:21:22.349Z,16.71
2017-05-03T15:24:16.971Z,16.67
2017-05-03T15:27:11.601Z,16.66
2017-05-03T15:30:06.213Z,16.57
2017-05-03T15:33:00.781Z,16.54
2017-05-03T15:35:55.374Z,16.50
2017-05-03T15:38:49.991Z,16.50
2017-05-03T15:41:44.521Z,16.46
2017-05-03T15:44:39.061Z,16.45
2017-05-03T15:47:33.668Z,16.40
2017-05-03T15:50:28.235Z,16.38
2017-05-03T15:53:22.825Z,16.35
2017-05-03T15:56:17.377Z,16.30
2017-05-03T15:59:12.133Z,16.31
2017-05-03T16:02:06.831Z,16.31
2017-05-03T16:05:01.467Z,16.30
2017-05-03T16:07:56.114Z,16.34
2017-05-03T16:10:50.774Z,16.36
2017-05-03T16:13:45.398Z,16.34
2017-05-03T16:16:40.001Z,16.32
2017-05-03T16:19:34.610Z,16.28
2017-05-03T16:22:29.321Z,16.24
2017-05-03T16:25:23.743Z,16.16
2017-05-03T16:28:18.365Z,16.13
2017-05-03T16:31:12.992Z,16.09
2017-05-03T16:34:07.651Z,16.07
2017-05-03T16:37:02.331Z,16.07
2017-05-03T16:42:51.536Z,15.99
2017-05-03T16:45:46.271Z,15.93
2017-05-03T16:48:40.954Z,15.89
2017-05-03T16:51:35.664Z,15.87
2017-05-03T16:54:30.165Z,15.84
2017-05-03T17:00:19.369Z,15.81
2017-05-03T17:03:14.003Z,15.79
2017-05-03T17:06:08.592Z,15.77
2017-05-03T17:09:03.217Z,15.76
2017-05-03T17:11:57.985Z,15.76
2017-05-03T17:14:52.600Z,15.77
2017-05-03T17:20:41.821Z,15.74
2017-05-03T17:23:36.347Z,15.73
2017-05-03T17:26:30.984Z,15.72
2017-05-03T17:29:25.548Z,15.68
2017-05-03T17:32:20.042Z,15.65
2017-05-03T17:35:14.526Z,15.60
2017-05-03T17:38:09.108Z,15.61
2017-05-03T17:41:03.746Z,15.58
2017-05-03T17:43:58.332Z,15.54
2017-05-03T17:46:52.818Z,15.51
2017-05-03T17:49:47.435Z,15.51
2017-05-03T17:52:41.999Z,15.53
2017-05-03T17:55:36.566Z,15.52
2017-05-03T17:58:31.266Z,15.53
2017-05-03T18:01:25.860Z,15.56
2017-05-03T18:04:20.389Z,15.56
2017-05-03T18:07:14.897Z,15.54
2017-05-03T18:10:09.476Z,15.54
2017-05-03T18:13:04.120Z,15.53
2017-05-03T18:18:53.083Z,15.49
2017-05-03T18:21:47.653Z,15.47
2017-05-03T18:24:42.325Z,15.44
2017-05-03T18:30:31.380Z,15.38
2017-05-03T18:33:25.931Z,15.35
2017-05-03T18:36:20.482Z,15.33
2017-05-03T18:39:14.963Z,15.29
2017-05-03T18:42:09.465Z,15.26
2017-05-03T18:45:03.905Z,15.24
2017-05-03T18:47:58.482Z,15.21
2017-05-03T18:50:53.016Z,15.18
2017-05-03T18:53:47.473Z,15.16
2017-05-03T18:56:41.960Z,15.12
2017-05-03T18:59:36.507Z,15.09
2017-05-03T19:02:31.083Z,15.06
2017-05-03T19:05:25.584Z,15.04
2017-05-03T19:08:20.001Z,15.00
2017-05-03T19:11:14.580Z,14.97
2017-05-03T19:14:09.038Z,14.95
2017-05-03T19:19:58.239Z,14.90
2017-05-03T19:22:52.780Z,14.90
2017-05-03T19:25:47.267Z,14.88
2017-05-03T19:28:41.902Z,14.86
2017-05-03T19:31:36.468Z,14.83
2017-05-03T19:34:30.992Z,14.80
2017-05-03T19:37:25.513Z,14.77
2017-05-03T19:40:20.078Z,14.74
2017-05-03T19:43:14.658Z,14.73
2017-05-03T19:46:09.197Z,14.71
2017-05-03T19:49:04.006Z,14.68
2017-05-03T19:51:58.553Z,14.63
2017-05-03T19:54:53.077Z,14.58
2017-05-03T19:57:47.632Z,14.54
2017-05-03T20:00:42.121Z,14.52
2017-05-03T20:03:36.723Z,14.50
2017-05-03T20:06:31.431Z,14.47
2017-05-03T20:09:25.839Z,14.45
2017-05-03T20:12:20.291Z,14.43
2017-05-03T20:15:14.897Z,14.41
2017-05-03T20:18:09.479Z,14.39
2017-05-03T20:21:03.972Z,14.37
2017-05-03T20:23:58.305Z,14.34
2017-05-03T20:26:52.718Z,14.33
2017-05-03T20:29:47.060Z,14.31
2017-05-03T20:35:36.046Z,14.25
2017-05-03T20:38:30.433Z,14.22
2017-05-03T20:44:19.167Z,14.21
2017-05-03T20:47:13.539Z,14.18
2017-05-03T20:50:07.893Z,14.15
2017-05-03T20:53:02.277Z,14.14
2017-05-03T20:55:56.627Z,14.12
2017-05-03T20:58:51.054Z,14.09
2017-05-03T21:01:45.332Z,14.08
2017-05-03T21:04:39.744Z,14.07
2017-05-03T21:07:34.096Z,14.04
2017-05-03T21:10:28.402Z,14.03
2017-05-03T21:13:22.889Z,14.00
2017-05-03T21:19:11.712Z,13.99
2017-05-03T21:22:06.192Z,13.97
2017-05-03T21:25:00.551Z,13.95
2017-05-03T21:27:55.096Z,13.94
2017-05-03T21:30:49.471Z,13.93
2017-05-03T21:33:43.832Z,13.93
2017-05-03T21:36:38.367Z,13.92
2017-05-03T21:42:27.452Z,13.85
2017-05-03T21:45:21.896Z,13.82
2017-05-03T21:48:16.350Z,13.78
2017-05-03T21:51:10.723Z,13.74
2017-05-03T21:54:05.260Z,13.71
2017-05-03T21:56:59.600Z,13.68
2017-05-03T21:59:54.104Z,13.64
2017-05-03T22:02:48.558Z,13.60
2017-05-03T22:05:43.013Z,13.56
2017-05-03T22:08:37.420Z,13.52
2017-05-03T22:11:32.003Z,13.46
2017-05-03T22:14:26.404Z,13.41
2017-05-03T22:17:20.801Z,13.38
2017-05-03T22:20:15.420Z,13.35
2017-05-03T22:23:09.912Z,13.32
2017-05-03T22:26:04.337Z,13.28
2017-05-03T22:28:58.780Z,13.25
2017-05-03T22:31:53.252Z,13.23
2017-05-03T22:34:47.959Z,13.21
2017-05-03T22:37:42.364Z,13.19
2017-05-03T22:43:31.382Z,13.18
2017-05-03T22:46:25.781Z,13.17
2017-05-03T22:49:20.339Z,13.13
2017-05-03T22:52:14.729Z,13.12
2017-05-03T22:58:03.639Z,13.09
2017-05-03T23:00:58.113Z,13.05
2017-05-03T23:03:52.471Z,13.03
2017-05-03T23:06:46.828Z,13.02
2017-05-03T23:09:41.185Z,13.03
2017-05-03T23:12:35.641Z,13.00
2017-05-03T23:15:30.022Z,12.98
2017-05-03T23:18:24.538Z,12.96
2017-05-03T23:21:18.729Z,12.94
2017-05-03T23:24:13.236Z,12.95
2017-05-03T23:27:08.098Z,12.95
2017-05-03T23:30:02.565Z,12.95
2017-05-03T23:32:56.893Z,12.96
2017-05-03T23:35:51.285Z,12.97
2017-05-03T23:38:45.744Z,12.98
2017-05-03T23:41:40.062Z,12.99
2017-05-03T23:44:34.375Z,12.98
2017-05-03T23:47:28.848Z,12.99
2017-05-03T23:50:23.261Z,12.99
2017-05-03T23:53:17.778Z,13.01
2017-05-03T23:56:11.979Z,13.00
2017-05-03T23:59:06.350Z,12.99
